Terminal Aerodrome Forecast
Issued by NWS Chicago, IL

Home | Current Version | Previous Version | Text Only | Print | Product List | Glossary On
Versions: 1 2 3 4 5 6 7 8 9 10 11 12 13 14 15 16 17 18 19 20 21 22 23 24 25 26 27 28 29 30 31 32
000
FTUS43 KLOT 180300 AAA
TAFRFD
TAF AMD
KRFD 180301Z 1803/1824 VRB02KT P6SM MIFG SKC
     FM181000 04005KT 6SM BR SCT020 BKN050
     FM181400 05007KT P6SM FEW007 BKN018 BKN050
     FM181800 07010KT P6SM FEW025 SCT050 SCT250=

USA.gov is the U.S. government's official web portal to all federal, state and local government web resources and services.